WS14 weather

Lake Ell Field
Amherst, Wisconsin, United States

Public forecast

Using degrees Fahrenheit for public forecast. Weather courtesy of forecast.io.

METAR (pilot weather report)

Closest report is Stevens Point Municipal Airport, 8.8 nm (16.3 km) WNW. Retrieved 2019/08/23 10:35 UTC (3 minutes ago):

KSTE 231035Z AUTO 07004KT 10SM OVC065 10/10 A3023 RMK AO2 T00970097

TAF (pilot weather forecast)

Closest forecast is Central Wisconsin Airport, 23.0 nm (42.5 km) NW. Retrieved 2019/08/23 06:22 UTC (4 hours ago):

TAF KCWA 230520Z 2306/2406 07004KT P6SM SKC TEMPO 2308/2312 1SM BR FM231500 08005KT P6SM SCT040 FM232100 12006KT P6SM SCT050 FM240100 VRB03KT P6SM SKC AMD LTD TO CLD VIS AND WIND TIL 231100